Time;durP1;ratioP1;P1;durP2;ratioP2;P2;SDS_P1;SDS_P2;PMS_P1;PMS_P2;Temp;Humidity;BMP_temperature;BMP_pressure;BME280_temperature;BME280_humidity;BME280_pressure;Samples;Min_cycle;Max_cycle;Signal;HPM_P1;HPM_P2
2022/03/28 00:00:25;;;;;;;31.63;16.35;;;;;;;7.92;93.77;102620.88;5273905;28;20375;-71
2022/03/28 00:02:58;;;;;;;33.67;16.30;;;;;;;7.90;92.46;102617.47;5274336;28;20078;-71
2022/03/28 00:05:29;;;;;;;24.02;13.30;;;;;;;7.84;91.42;102611.66;5275520;28;20035;-71
2022/03/28 00:08:00;;;;;;;21.10;11.93;;;;;;;7.75;93.48;102621.59;5278600;28;20028;-71
2022/03/28 00:10:33;;;;;;;16.23;9.98;;;;;;;7.72;94.94;102615.66;5275697;28;20032;-71
2022/03/28 00:13:05;;;;;;;19.27;10.27;;;;;;;7.65;93.53;102602.06;5277578;28;20036;-71
2022/03/28 00:15:36;;;;;;;19.38;10.27;;;;;;;7.62;94.48;102601.38;5279069;28;20486;-70
2022/03/28 00:18:09;;;;;;;19.42;10.25;;;;;;;7.64;97.79;102595.16;5277239;28;20370;-71
2022/03/28 00:20:41;;;;;;;17.15;8.55;;;;;;;7.77;95.80;102587.63;5277520;28;20016;-71
2022/03/28 00:23:13;;;;;;;18.30;9.02;;;;;;;7.65;96.79;102591.66;5277127;28;20038;-70
2022/03/28 00:25:45;;;;;;;17.40;9.60;;;;;;;7.53;97.65;102594.78;5278154;28;20037;-71
2022/03/28 00:28:16;;;;;;;17.20;8.70;;;;;;;7.45;95.65;102584.69;5277368;28;20032;-71
2022/03/28 00:30:48;;;;;;;17.35;8.93;;;;;;;7.41;96.35;102584.88;5277736;28;20033;-70
2022/03/28 00:33:19;;;;;;;15.63;8.93;;;;;;;7.40;95.65;102584.03;5277415;28;20478;-71
2022/03/28 00:35:50;;;;;;;19.75;9.70;;;;;;;7.35;96.41;102579.91;5275864;28;20024;-71
2022/03/28 00:38:22;;;;;;;17.33;8.90;;;;;;;7.27;98.12;102568.09;5277304;28;20076;-71
2022/03/28 00:40:53;;;;;;;20.80;10.35;;;;;;;7.25;100.00;102567.28;5277607;28;20097;-71
2022/03/28 00:43:26;;;;;;;17.45;9.15;;;;;;;7.20;100.00;102571.03;5277155;28;20412;-71
2022/03/28 00:45:57;;;;;;;22.00;9.93;;;;;;;7.18;100.00;102559.81;5276361;28;20070;-71
2022/03/28 00:48:28;;;;;;;19.08;8.80;;;;;;;7.07;100.00;102549.84;5276313;28;20480;-71
2022/03/28 00:51:01;;;;;;;21.27;9.63;;;;;;;7.09;100.00;102563.66;5277730;28;20023;-71
2022/03/28 00:53:32;;;;;;;16.90;9.95;;;;;;;7.07;100.00;102566.31;5275478;28;20028;-71
2022/03/28 00:56:05;;;;;;;15.60;9.18;;;;;;;7.00;100.00;102566.63;5277110;28;20024;-71
2022/03/28 00:58:36;;;;;;;16.85;9.40;;;;;;;6.96;100.00;102555.50;5278018;28;20016;-71
2022/03/28 01:01:09;;;;;;;22.17;8.88;;;;;;;6.96;100.00;102552.91;5276098;28;20283;-71
2022/03/28 01:03:41;;;;;;;16.20;9.30;;;;;;;7.00;100.00;102544.03;5275689;28;20028;-70
2022/03/28 01:06:12;;;;;;;17.48;8.77;;;;;;;7.04;100.00;102548.19;5276515;28;20506;-71
2022/03/28 01:08:44;;;;;;;20.63;9.50;;;;;;;7.03;100.00;102532.66;5281904;28;20031;-71
2022/03/28 01:11:17;;;;;;;17.63;8.93;;;;;;;7.01;100.00;102534.47;5276745;28;20024;-70
2022/03/28 01:13:49;;;;;;;17.55;9.20;;;;;;;6.96;100.00;102537.25;5276854;28;20106;-70
2022/03/28 01:16:20;;;;;;;14.95;8.93;;;;;;;6.92;100.00;102538.31;5277059;28;20024;-71
2022/03/28 01:18:52;;;;;;;18.15;8.73;;;;;;;6.91;100.00;102539.22;5275978;28;20036;-71
2022/03/28 01:21:23;;;;;;;17.60;8.95;;;;;;;6.88;100.00;102528.94;5276063;28;20310;-69
2022/03/28 01:23:54;;;;;;;16.05;9.32;;;;;;;6.94;100.00;102533.03;5277049;28;20113;-71
2022/03/28 01:26:26;;;;;;;15.48;8.70;;;;;;;6.78;100.00;102525.00;5274707;28;20023;-70
2022/03/28 01:28:58;;;;;;;23.05;10.05;;;;;;;6.69;100.00;102521.03;5276710;28;20427;-70
2022/03/28 01:31:29;;;;;;;23.10;9.90;;;;;;;6.73;100.00;102521.75;5275921;28;20470;-71
2022/03/28 01:34:01;;;;;;;27.02;10.13;;;;;;;6.67;100.00;102519.44;5275931;28;20473;-70
2022/03/28 01:36:33;;;;;;;16.83;9.13;;;;;;;6.64;100.00;102514.34;5275862;28;20116;-71
2022/03/28 01:39:04;;;;;;;17.38;7.88;;;;;;;6.55;100.00;102510.34;5275492;28;20488;-70
2022/03/28 01:41:35;;;;;;;16.30;9.43;;;;;;;6.51;100.00;102501.81;5276478;28;20053;-71
2022/03/28 01:44:07;;;;;;;20.08;9.65;;;;;;;6.57;100.00;102506.78;5275482;28;20027;-71
2022/03/28 01:46:46;;;;;;;20.67;9.35;;;;;;;6.55;100.00;102506.00;5274675;28;20752;-71
2022/03/28 01:49:20;;;;;;;20.02;8.85;;;;;;;6.47;100.00;102508.03;5276017;28;20028;-71
2022/03/28 01:51:51;;;;;;;22.63;9.93;;;;;;;6.40;100.00;102509.19;5274534;28;20059;-70
2022/03/28 01:54:22;;;;;;;16.33;8.70;;;;;;;6.44;100.00;102508.19;5274421;28;20500;-71
2022/03/28 01:56:54;;;;;;;16.48;8.70;;;;;;;6.50;100.00;102505.31;5276452;28;20024;-70
2022/03/28 01:59:25;;;;;;;19.35;9.30;;;;;;;6.33;100.00;102508.63;5276155;28;20040;-71
2022/03/28 02:01:56;;;;;;;17.52;8.70;;;;;;;6.31;100.00;102499.19;5273706;28;20016;-71
2022/03/28 02:04:27;;;;;;;18.00;9.57;;;;;;;6.28;100.00;102496.69;5273273;28;20405;-71
2022/03/28 02:06:59;;;;;;;17.50;8.75;;;;;;;6.30;100.00;102489.69;5275284;28;20393;-70
2022/03/28 02:09:30;;;;;;;17.35;8.98;;;;;;;6.29;100.00;102498.41;5274543;28;20432;-71
2022/03/28 02:12:02;;;;;;;15.40;8.90;;;;;;;6.19;100.00;102492.72;5275642;28;20115;-70
2022/03/28 02:14:33;;;;;;;17.00;8.65;;;;;;;6.16;100.00;102497.19;5275177;28;20040;-70
2022/03/28 02:17:04;;;;;;;15.13;8.43;;;;;;;6.18;100.00;102495.38;5273024;28;20095;-70
2022/03/28 02:19:36;;;;;;;16.73;8.45;;;;;;;6.17;100.00;102491.06;5275497;28;20477;-71
2022/03/28 02:22:07;;;;;;;16.88;8.27;;;;;;;6.14;100.00;102492.06;5275373;28;20052;-71
2022/03/28 02:24:39;;;;;;;22.85;9.10;;;;;;;6.14;100.00;102488.59;5275156;28;20028;-71
2022/03/28 02:27:10;;;;;;;16.15;9.23;;;;;;;6.09;100.00;102465.34;5272712;28;20025;-71
2022/03/28 02:29:41;;;;;;;18.20;9.25;;;;;;;6.09;100.00;102480.97;5275506;28;20436;-71
2022/03/28 02:32:13;;;;;;;18.40;9.18;;;;;;;6.04;100.00;102478.56;5275998;28;20381;-70
2022/03/28 02:34:44;;;;;;;17.25;9.07;;;;;;;6.04;100.00;102478.56;5275511;28;20025;-71
2022/03/28 02:37:17;;;;;;;16.10;8.65;;;;;;;5.98;100.00;102478.78;5274013;28;20025;-71
2022/03/28 02:39:48;;;;;;;16.45;8.85;;;;;;;5.96;100.00;102471.97;5275467;28;20040;-71
2022/03/28 02:42:22;;;;;;;14.95;8.07;;;;;;;5.96;100.00;102466.75;5275683;28;20021;-71
2022/03/28 02:44:53;;;;;;;18.00;8.73;;;;;;;5.98;100.00;102459.72;5274878;28;20021;-71
2022/03/28 02:47:24;;;;;;;15.57;8.50;;;;;;;5.99;100.00;102457.09;5275556;28;20036;-70
2022/03/28 02:49:56;;;;;;;15.48;8.13;;;;;;;6.04;100.00;102459.50;5274652;28;20035;-71
2022/03/28 02:52:27;;;;;;;16.15;7.90;;;;;;;5.97;100.00;102455.44;5273681;28;20040;-70
2022/03/28 02:54:58;;;;;;;16.88;8.25;;;;;;;5.90;100.00;102452.19;5274950;28;20056;-73
2022/03/28 02:57:30;;;;;;;19.52;8.85;;;;;;;5.86;100.00;102453.22;5275625;28;20559;-70
2022/03/28 03:00:04;;;;;;;18.60;8.85;;;;;;;5.79;100.00;102449.16;5275276;28;20484;-69
2022/03/28 03:02:35;;;;;;;13.93;8.30;;;;;;;5.79;100.00;102451.78;5273674;28;20043;-69
2022/03/28 03:05:07;;;;;;;22.02;10.45;;;;;;;5.71;100.00;102444.25;5275196;28;20025;-70
2022/03/28 03:07:39;;;;;;;16.65;8.57;;;;;;;5.71;100.00;102438.22;5274371;28;20473;-70
2022/03/28 03:10:10;;;;;;;16.45;9.25;;;;;;;5.70;100.00;102442.59;5274445;28;20059;-69
2022/03/28 03:12:42;;;;;;;20.10;8.15;;;;;;;5.71;100.00;102438.22;5274923;28;20017;-69
2022/03/28 03:15:13;;;;;;;16.15;8.70;;;;;;;5.69;100.00;102437.44;5275286;28;20105;-70
2022/03/28 03:17:44;;;;;;;16.38;8.95;;;;;;;5.73;100.00;102426.03;5273085;28;20025;-70
2022/03/28 03:20:16;;;;;;;16.10;8.48;;;;;;;5.71;100.00;102426.06;5272360;28;20013;-70
2022/03/28 03:22:47;;;;;;;16.30;8.82;;;;;;;5.69;100.00;102432.25;5274395;28;20032;-70
2022/03/28 03:25:18;;;;;;;16.67;8.98;;;;;;;5.65;100.00;102435.88;5273932;28;20061;-70
2022/03/28 03:27:51;;;;;;;17.00;8.43;;;;;;;5.65;100.00;102425.47;5275298;28;20012;-70
2022/03/28 03:30:23;;;;;;;19.08;9.85;;;;;;;5.66;100.00;102427.16;5275372;28;20025;-70
2022/03/28 03:32:54;;;;;;;24.65;9.50;;;;;;;5.63;100.00;102419.47;5274404;28;20538;-73
2022/03/28 03:35:25;;;;;;;20.27;8.82;;;;;;;5.63;100.00;102419.47;5272770;28;20032;-70
2022/03/28 03:37:56;;;;;;;18.13;8.77;;;;;;;5.59;100.00;102416.16;5274546;28;20020;-70
2022/03/28 03:40:28;;;;;;;16.63;8.32;;;;;;;5.61;100.00;102417.78;5279148;28;20033;-70
2022/03/28 03:42:59;;;;;;;16.50;8.95;;;;;;;5.60;100.00;102415.22;5278693;28;20017;-70
2022/03/28 03:45:30;;;;;;;16.80;9.85;;;;;;;5.60;100.00;102417.84;5277501;28;20115;-70
2022/03/28 03:48:02;;;;;;;16.27;8.73;;;;;;;5.56;100.00;102414.50;5277265;28;20024;-70
2022/03/28 03:50:33;;;;;;;18.92;8.65;;;;;;;5.56;100.00;102406.69;5278328;28;20029;-70
2022/03/28 03:53:04;;;;;;;16.65;8.27;;;;;;;5.54;100.00;102402.50;5275565;28;20398;-70
2022/03/28 03:55:37;;;;;;;21.73;9.93;;;;;;;5.50;100.00;102388.75;5278502;28;20419;-70
2022/03/28 03:58:08;;;;;;;20.23;9.27;;;;;;;5.46;100.00;102400.19;5278605;28;20024;-70
2022/03/28 04:00:40;;;;;;;18.73;10.00;;;;;;;5.36;100.00;102391.88;5275293;28;20086;-70
2022/03/28 04:03:11;;;;;;;18.92;9.85;;;;;;;5.40;100.00;102397.81;5278136;28;20021;-70
2022/03/28 04:05:43;;;;;;;19.95;9.13;;;;;;;5.31;100.00;102392.97;5277876;28;20031;-70
2022/03/28 04:08:14;;;;;;;21.50;9.38;;;;;;;5.28;100.00;102393.94;5277582;28;20032;-70
2022/03/28 04:10:46;;;;;;;18.80;9.25;;;;;;;5.27;100.00;102391.41;5276519;28;20029;-70
2022/03/28 04:13:18;;;;;;;23.95;9.43;;;;;;;5.26;100.00;102392.28;5277644;28;20048;-70
2022/03/28 04:15:50;;;;;;;19.73;9.73;;;;;;;5.20;100.00;102387.34;5278766;28;20016;-70
2022/03/28 04:18:21;;;;;;;19.02;10.10;;;;;;;5.18;100.00;102389.13;5276913;28;20035;-70
2022/03/28 04:20:56;;;;;;;18.27;9.98;;;;;;;5.22;100.00;102383.75;5278168;28;20029;-69
2022/03/28 04:23:27;;;;;;;16.58;9.48;;;;;;;5.16;100.00;102381.41;5276643;28;20029;-70
2022/03/28 04:25:59;;;;;;;16.30;8.70;;;;;;;5.11;100.00;102385.91;5278193;28;20024;-70
2022/03/28 04:28:30;;;;;;;20.58;9.00;;;;;;;5.04;100.00;102387.06;5277370;28;20020;-70
2022/03/28 04:31:01;;;;;;;21.70;9.27;;;;;;;5.02;100.00;102384.50;5277718;28;20032;-70
2022/03/28 04:33:33;;;;;;;19.85;9.75;;;;;;;4.95;100.00;102384.78;5272881;28;20105;-70
2022/03/28 04:36:04;;;;;;;20.77;9.25;;;;;;;4.98;100.00;102385.53;5277654;28;20394;-70
2022/03/28 04:38:36;;;;;;;20.10;9.05;;;;;;;4.99;100.00;102392.41;5277980;28;20145;-70
2022/03/28 04:41:07;;;;;;;19.83;9.38;;;;;;;4.97;100.00;102390.78;5276316;28;20016;-70
2022/03/28 04:43:38;;;;;;;18.70;9.80;;;;;;;4.94;100.00;102385.69;5274335;28;20513;-70
2022/03/28 04:46:10;;;;;;;19.35;9.63;;;;;;;4.93;100.00;102384.00;5277387;28;20493;-70
2022/03/28 04:48:41;;;;;;;16.88;8.88;;;;;;;4.94;100.00;102380.50;5277255;28;20031;-70
2022/03/28 04:51:12;;;;;;;21.27;9.45;;;;;;;4.96;100.00;102386.47;5277360;28;20013;-70
2022/03/28 04:53:44;;;;;;;27.35;10.25;;;;;;;4.91;100.00;102378.00;5276693;28;20496;-71
2022/03/28 04:56:15;;;;;;;20.00;9.43;;;;;;;4.89;100.00;102375.47;5277170;28;20100;-70
2022/03/28 04:58:46;;;;;;;18.65;8.85;;;;;;;4.87;100.00;102392.84;5275959;28;20024;-70
2022/03/28 05:01:17;;;;;;;22.50;9.63;;;;;;;4.86;100.00;102380.78;5276622;28;20071;-70
2022/03/28 05:03:49;;;;;;;18.63;9.63;;;;;;;4.86;100.00;102388.56;5277201;28;20512;-70
2022/03/28 05:06:20;;;;;;;19.92;8.65;;;;;;;4.80;100.00;102392.22;5276874;28;20040;-70
2022/03/28 05:08:51;;;;;;;18.77;8.48;;;;;;;4.88;100.00;102390.19;5277144;28;20046;-70
2022/03/28 05:11:23;;;;;;;19.13;9.27;;;;;;;4.85;100.00;102392.06;5276054;28;20036;-70
2022/03/28 05:13:55;;;;;;;17.75;9.38;;;;;;;4.73;100.00;102379.50;5276480;28;20122;-70
2022/03/28 05:16:26;;;;;;;19.45;9.52;;;;;;;4.62;100.00;102378.16;5275443;28;20059;-70
2022/03/28 05:18:57;;;;;;;19.20;8.70;;;;;;;4.68;100.00;102384.88;5275920;28;20031;-70
2022/03/28 05:21:28;;;;;;;17.50;8.80;;;;;;;4.61;100.00;102383.38;5277222;28;20021;-70
2022/03/28 05:24:00;;;;;;;21.27;8.90;;;;;;;4.58;100.00;102388.69;5275813;28;20105;-70
2022/03/28 05:26:31;;;;;;;18.63;8.90;;;;;;;4.57;100.00;102390.44;5274354;28;20069;-70
2022/03/28 05:29:03;;;;;;;20.25;9.15;;;;;;;4.56;100.00;102387.91;5276910;28;20103;-70
2022/03/28 05:31:34;;;;;;;17.77;8.75;;;;;;;4.55;100.00;102381.88;5274774;28;20119;-70
2022/03/28 05:34:08;;;;;;;18.90;9.45;;;;;;;4.62;100.00;102379.88;5276520;28;20540;-70
2022/03/28 05:36:40;;;;;;;15.35;8.82;;;;;;;4.56;100.00;102383.56;5275487;28;20093;-71
2022/03/28 05:39:12;;;;;;;19.70;9.30;;;;;;;4.61;100.00;102376.44;5276852;28;20024;-71
2022/03/28 05:41:44;;;;;;;20.77;9.30;;;;;;;4.55;100.00;102383.63;5276101;28;20020;-71
2022/03/28 05:44:15;;;;;;;21.15;9.55;;;;;;;4.55;100.00;102379.28;5271535;28;20050;-71
2022/03/28 05:46:50;;;;;;;19.02;9.50;;;;;;;4.59;100.00;102380.03;5273652;28;20549;-71
2022/03/28 05:49:24;;;;;;;22.00;9.27;;;;;;;4.59;100.00;102375.66;5276566;28;20021;-72
2022/03/28 05:51:56;;;;;;;26.00;10.48;;;;;;;4.57;100.00;102366.22;5274609;28;20029;-71
2022/03/28 05:54:27;;;;;;;23.88;10.10;;;;;;;4.56;100.00;102367.16;5274611;28;20024;-71
2022/03/28 05:56:59;;;;;;;24.65;10.10;;;;;;;4.62;100.00;102362.59;5275955;28;20024;-72
2022/03/28 05:59:30;;;;;;;22.10;9.85;;;;;;;4.60;100.00;102354.00;5275965;28;20027;-72
2022/03/28 06:02:02;;;;;;;22.52;8.73;;;;;;;4.67;100.00;102359.81;5275459;28;20580;-72
2022/03/28 06:04:34;;;;;;;23.95;8.85;;;;;;;4.79;100.00;102356.78;5274543;28;20473;-72
2022/03/28 06:07:05;;;;;;;22.80;10.02;;;;;;;4.73;100.00;102359.59;5274708;28;20034;-72
2022/03/28 06:09:36;;;;;;;16.75;8.68;;;;;;;4.81;100.00;102357.59;5275770;28;20024;-72
2022/03/28 06:12:08;;;;;;;18.17;8.63;;;;;;;4.85;100.00;102360.91;5275488;28;20042;-72
2022/03/28 06:14:39;;;;;;;23.90;9.07;;;;;;;4.87;100.00;102362.53;5275135;28;20040;-72
2022/03/28 06:17:19;;;;;;;18.80;9.32;;;;;;;5.00;100.00;102352.56;5275653;28;20031;-72
2022/03/28 06:19:52;;;;;;;21.75;9.77;;;;;;;4.93;100.00;102365.81;5270305;28;20032;-72
2022/03/28 06:22:24;;;;;;;21.35;9.07;;;;;;;5.02;100.00;102352.50;5270336;28;20028;-72
2022/03/28 06:24:56;;;;;;;21.95;9.27;;;;;;;5.06;100.00;102361.84;5274514;28;20035;-72
2022/03/28 06:27:27;;;;;;;26.05;9.10;;;;;;;5.05;100.00;102353.22;5275612;28;20242;-72
2022/03/28 06:29:58;;;;;;;23.17;9.85;;;;;;;5.19;100.00;102362.22;5264294;28;20491;-72
2022/03/28 06:32:30;;;;;;;21.10;9.32;;;;;;;5.23;100.00;102354.28;5273483;28;20032;-72
2022/03/28 06:35:01;;;;;;;24.83;10.10;;;;;;;5.25;100.00;102349.88;5273575;28;20024;-72
2022/03/28 06:37:33;;;;;;;24.35;9.57;;;;;;;5.36;100.00;102346.84;5271662;28;20048;-72
2022/03/28 06:40:05;;;;;;;19.67;9.13;;;;;;;5.34;100.00;102346.94;5272437;28;20028;-72
2022/03/28 06:42:37;;;;;;;26.33;10.17;;;;;;;5.48;100.00;102354.16;5274545;28;20032;-72
2022/03/28 06:45:10;;;;;;;24.25;9.95;;;;;;;5.48;100.00;102356.75;5275644;28;20348;-72
2022/03/28 06:47:42;;;;;;;30.80;10.60;;;;;;;5.62;100.00;102361.44;5274766;28;20116;-72
2022/03/28 06:50:13;;;;;;;31.33;10.35;;;;;;;5.69;100.00;102362.03;5272265;28;20032;-72
2022/03/28 06:52:45;;;;;;;30.25;10.18;;;;;;;5.78;100.00;102356.47;5273066;28;20082;-72
2022/03/28 06:55:16;;;;;;;21.52;10.25;;;;;;;5.87;100.00;102350.88;5275028;28;20020;-72
2022/03/28 06:57:47;;;;;;;26.70;8.85;;;;;;;5.92;100.00;102346.38;5274924;28;20381;-72
2022/03/28 07:00:19;;;;;;;29.02;10.75;;;;;;;6.05;100.00;102350.16;5271170;28;20033;-73
2022/03/28 07:02:50;;;;;;;30.42;11.68;;;;;;;6.21;100.00;102344.28;5271565;28;20028;-72
2022/03/28 07:05:22;;;;;;;34.92;9.63;;;;;;;6.31;100.00;102341.25;5275481;28;20111;-72
2022/03/28 07:07:53;;;;;;;35.03;11.63;;;;;;;6.39;100.00;102343.50;5275175;28;20033;-74
2022/03/28 07:10:26;;;;;;;27.77;10.57;;;;;;;6.57;100.00;102332.31;5274027;28;20082;-72
2022/03/28 07:12:57;;;;;;;30.63;12.02;;;;;;;6.74;100.00;102342.00;5274156;28;20378;-71
2022/03/28 07:15:28;;;;;;;26.02;10.68;;;;;;;6.70;100.00;102327.38;5282459;28;20021;-72
2022/03/28 07:18:05;;;;;;;28.63;11.20;;;;;;;6.92;100.00;102331.63;5281018;28;20024;-72
2022/03/28 07:20:37;;;;;;;31.35;11.68;;;;;;;7.20;100.00;102331.22;5280754;28;20599;-72
2022/03/28 07:23:09;;;;;;;27.40;11.80;;;;;;;7.31;100.00;102319.38;5280626;28;20386;-72
2022/03/28 07:25:41;;;;;;;25.42;10.27;;;;;;;7.47;100.00;102326.47;5274686;28;20020;-73
2022/03/28 07:28:14;;;;;;;31.60;12.30;;;;;;;7.55;100.00;102326.94;5276280;28;20044;-73
2022/03/28 07:30:45;;;;;;;;;;;;;;;8.00;100.00;102317.75;5278547;28;20029;-73
2022/03/28 07:33:17;;;;;;;24.30;10.85;;;;;;;7.77;100.00;102316.31;5278251;28;20527;-73
2022/03/28 07:35:48;;;;;;;32.72;12.85;;;;;;;7.89;100.00;102312.22;5280318;28;20500;-72
2022/03/28 07:38:20;;;;;;;28.58;12.63;;;;;;;8.00;100.00;102316.00;5281323;28;20120;-73
2022/03/28 07:40:51;;;;;;;29.42;12.93;;;;;;;8.07;100.00;102308.69;5280271;28;20108;-73
2022/03/28 07:43:22;;;;;;;27.10;12.65;;;;;;;8.17;100.00;102303.84;5280005;28;20052;-73
2022/03/28 07:45:54;;;;;;;30.63;12.43;;;;;;;8.29;100.00;102297.97;5280004;28;20029;-73
2022/03/28 07:48:27;;;;;;;37.55;13.77;;;;;;;8.37;100.00;102301.09;5280217;28;20028;-73
2022/03/28 07:50:58;;;;;;;29.42;12.85;;;;;;;8.57;100.00;102291.34;5279338;28;20096;-73
2022/03/28 07:53:29;;;;;;;28.63;12.73;;;;;;;8.65;100.00;102290.03;5278706;28;20123;-73
2022/03/28 07:56:01;;;;;;;25.88;12.48;;;;;;;8.69;100.00;102290.69;5273936;28;20029;-73
2022/03/28 07:58:34;;;;;;;34.75;14.00;;;;;;;8.88;100.00;102308.84;5277996;28;20033;-73
2022/03/28 08:01:05;;;;;;;25.88;12.98;;;;;;;9.01;100.00;102292.38;5273415;28;20033;-73
2022/03/28 08:03:36;;;;;;;28.42;13.73;;;;;;;9.14;100.00;102289.13;5277677;28;20380;-70
2022/03/28 08:06:08;;;;;;;29.80;13.55;;;;;;;9.22;100.00;102298.22;5274498;28;20494;-71
2022/03/28 08:08:39;;;;;;;24.55;12.90;;;;;;;9.23;100.00;102296.44;5280394;28;20496;-71
2022/03/28 08:11:11;;;;;;;30.67;13.07;;;;;;;9.34;100.00;102296.69;5272647;28;20032;-71
2022/03/28 08:13:42;;;;;;;29.48;12.60;;;;;;;9.49;100.00;102287.97;5269667;28;20044;-71
2022/03/28 08:16:15;;;;;;;31.90;13.40;;;;;;;9.59;100.00;102280.44;5267041;28;20053;-71
2022/03/28 08:18:46;;;;;;;24.73;13.30;;;;;;;9.70;100.00;102275.44;5279706;28;20027;-71
2022/03/28 08:21:18;;;;;;;30.83;13.20;;;;;;;9.79;100.00;102273.19;5279755;28;20113;-71
2022/03/28 08:23:49;;;;;;;31.23;14.32;;;;;;;9.91;100.00;102273.31;5280704;28;20020;-71
2022/03/28 08:26:21;;;;;;;36.05;15.00;;;;;;;9.92;100.00;102272.38;5275902;28;20489;-71
2022/03/28 08:28:53;;;;;;;30.15;13.48;;;;;;;10.14;100.00;102277.16;5277546;28;20051;-72
2022/03/28 08:31:24;;;;;;;35.75;15.00;;;;;;;10.28;100.00;102268.53;5272640;28;20070;-71
2022/03/28 08:33:55;;;;;;;28.17;13.57;;;;;;;10.41;100.00;102264.19;5274882;28;20028;-71
2022/03/28 08:36:27;;;;;;;29.35;14.80;;;;;;;10.48;100.00;102262.91;5277264;28;20028;-71
2022/03/28 08:38:58;;;;;;;30.65;13.50;;;;;;;10.61;100.00;102259.53;5273011;28;20039;-71
2022/03/28 08:41:32;;;;;;;29.13;14.38;;;;;;;10.76;100.00;102261.19;5270349;28;20111;-72
2022/03/28 08:44:03;;;;;;;30.02;15.45;;;;;;;10.84;100.00;102252.84;5275655;28;20024;-72
2022/03/28 08:46:40;;;;;;;30.23;14.57;;;;;;;11.01;100.00;102264.88;5277250;28;20437;-71
2022/03/28 08:49:12;;;;;;;27.98;14.65;;;;;;;11.16;100.00;102259.47;5275849;28;20028;-72
2022/03/28 08:51:43;;;;;;;33.23;15.70;;;;;;;11.35;100.00;102259.13;5275636;28;20020;-72
2022/03/28 08:54:15;;;;;;;30.95;16.00;;;;;;;11.37;100.00;102248.53;5275977;28;20339;-72
2022/03/28 08:56:49;;;;;;;27.52;15.75;;;;;;;11.61;99.34;102253.94;5275711;28;20032;-73
2022/03/28 08:59:21;;;;;;;26.20;15.50;;;;;;;11.54;96.70;102255.28;5272968;28;20117;-73
2022/03/28 09:01:52;;;;;;;31.38;17.25;;;;;;;11.66;95.62;102257.09;5272681;28;20641;-73
2022/03/28 09:04:24;;;;;;;30.92;16.75;;;;;;;11.64;93.44;102249.31;5272053;28;20504;-73
2022/03/28 09:06:57;;;;;;;36.22;18.10;;;;;;;11.87;96.10;102249.59;5271497;28;20098;-73
2022/03/28 09:09:29;;;;;;;40.05;17.77;;;;;;;12.01;94.00;102257.38;5274942;28;20032;-73
2022/03/28 09:12:07;;;;;;;35.67;17.92;;;;;;;12.10;92.69;102246.22;5269871;28;20484;-73
2022/03/28 09:14:40;;;;;;;27.13;17.52;;;;;;;12.29;92.54;102244.97;5272232;28;20456;-73
2022/03/28 09:17:15;;;;;;;31.50;18.42;;;;;;;12.44;90.35;102241.25;5272591;28;20060;-73
2022/03/28 09:20:01;;;;;;;31.27;17.60;;;;;;;12.48;89.71;102239.25;5265820;28;20034;-73
2022/03/28 09:22:36;;;;;;;32.72;18.42;;;;;;;12.66;88.28;102245.84;5274692;28;20036;-73
2022/03/28 09:25:10;;;;;;;29.83;17.65;;;;;;;12.82;88.37;102240.31;5276683;28;20462;-73
2022/03/28 09:27:44;;;;;;;27.95;17.63;;;;;;;12.87;87.08;102235.56;5276146;28;20028;-73
2022/03/28 09:30:17;;;;;;;31.38;17.52;;;;;;;13.09;87.41;102235.69;5275717;28;20025;-73
2022/03/28 09:32:52;;;;;;;28.15;16.83;;;;;;;13.36;85.45;102237.25;5275183;28;20031;-73
2022/03/28 09:35:26;;;;;;;33.17;18.13;;;;;;;13.45;83.61;102233.97;5275260;28;20035;-73
2022/03/28 09:38:05;;;;;;;31.45;18.02;;;;;;;13.51;80.99;102230.84;5274386;28;20147;-73
2022/03/28 09:40:43;;;;;;;30.95;17.88;;;;;;;13.61;80.99;102223.94;5276245;28;20028;-73
2022/03/28 09:43:23;;;;;;;30.95;17.45;;;;;;;13.90;79.98;102217.38;5275382;28;20062;-73
2022/03/28 09:45:57;;;;;;;29.15;18.15;;;;;;;14.02;76.11;102221.75;5275760;28;20560;-73
2022/03/28 09:48:28;;;;;;;;;;;;;;;14.53;77.84;102226.53;5273958;28;20020;-74
2022/03/28 09:51:05;;;;;;;33.08;17.98;;;;;;;14.41;74.57;102222.19;5275863;28;20381;-74
2022/03/28 09:53:38;;;;;;;28.08;17.73;;;;;;;14.38;72.50;102206.63;5274235;28;20032;-73
2022/03/28 09:56:11;;;;;;;26.48;17.83;;;;;;;14.55;71.14;102216.72;5275866;28;20020;-71
2022/03/28 09:58:48;;;;;;;27.38;18.90;;;;;;;14.59;72.33;102211.06;5275383;28;20060;-71
2022/03/28 10:01:22;;;;;;;27.98;18.95;;;;;;;14.59;70.05;102204.94;5275543;28;20111;-71
2022/03/28 10:03:59;;;;;;;32.03;18.30;;;;;;;14.80;71.59;102203.19;5275912;28;20376;-72
2022/03/28 10:06:31;;;;;;;29.88;19.80;;;;;;;14.93;68.54;102202.22;5275384;28;20041;-71
2022/03/28 10:09:04;;;;;;;30.42;19.05;;;;;;;15.17;69.25;102199.38;5275126;28;20055;-71
2022/03/28 10:11:38;;;;;;;34.97;21.23;;;;;;;15.17;67.24;102199.38;5276054;28;20078;-71
2022/03/28 10:14:11;;;;;;;28.85;19.70;;;;;;;15.35;66.09;102204.94;5275818;28;20131;-71
2022/03/28 10:16:42;;;;;;;31.38;20.15;;;;;;;15.40;65.44;102202.72;5273128;28;20601;-71
2022/03/28 10:19:15;;;;;;;34.13;20.70;;;;;;;15.46;64.86;102196.94;5270542;28;20041;-71
2022/03/28 10:21:47;;;;;;;34.53;20.58;;;;;;;15.45;64.82;102192.59;5275799;28;20028;-71
2022/03/28 10:24:24;;;;;;;27.77;19.90;;;;;;;15.63;64.31;102191.06;5268004;28;20489;-71
2022/03/28 10:26:58;;;;;;;29.73;20.45;;;;;;;15.70;62.54;102186.13;5273803;28;20151;-71
2022/03/28 10:29:35;;;;;;;32.35;20.38;;;;;;;15.93;63.35;102186.78;5272240;28;20379;-71
2022/03/28 10:32:16;;;;;;;30.02;20.33;;;;;;;15.91;61.79;102178.16;5273486;28;20028;-73
2022/03/28 10:34:56;;;;;;;30.10;19.48;;;;;;;15.98;64.05;102172.19;5275619;28;20469;-71
2022/03/28 10:37:50;;;;;;;32.58;20.27;;;;;;;16.23;61.62;102170.91;5274589;28;20604;-71
2022/03/28 10:40:27;;;;;;;29.73;19.85;;;;;;;16.28;59.35;102167.84;5273171;28;20559;-71
2022/03/28 10:43:12;;;;;;;27.95;19.63;;;;;;;16.40;59.95;102155.34;5275042;28;20033;-71
2022/03/28 10:45:51;;;;;;;28.45;19.77;;;;;;;16.56;59.73;102147.75;5274950;28;20093;-71
2022/03/28 10:48:33;;;;;;;25.75;18.65;;;;;;;16.59;60.68;102150.09;5272531;28;20024;-71
2022/03/28 10:51:08;;;;;;;25.50;19.30;;;;;;;16.35;57.85;102144.34;5267338;28;20044;-71
2022/03/28 10:53:51;;;;;;;28.92;19.90;;;;;;;16.37;57.69;102145.91;5271925;28;20486;-72
2022/03/28 10:56:34;;;;;;;28.40;20.75;;;;;;;16.74;57.43;102147.91;5271926;28;20485;-71
2022/03/28 10:59:11;;;;;;;27.77;19.13;;;;;;;16.75;55.16;102141.66;5274059;28;20535;-71
2022/03/28 11:01:44;;;;;;;26.02;19.08;;;;;;;16.78;54.64;102141.34;5271835;28;20021;-72
2022/03/28 11:04:24;;;;;;;26.60;19.73;;;;;;;16.88;54.68;102144.03;5274798;28;20016;-71
2022/03/28 11:07:07;;;;;;;27.60;19.52;;;;;;;17.23;55.27;102138.97;5274594;28;20475;-71
2022/03/28 11:09:44;;;;;;;;;;;;;;;17.69;55.46;102142.63;5273871;28;20021;-72
2022/03/28 11:12:16;;;;;;;25.38;17.98;;;;;;;17.22;53.61;102139.13;5274967;28;20399;-71
2022/03/28 11:14:50;;;;;;;28.30;18.83;;;;;;;16.91;54.15;102133.16;5272010;28;20040;-70
2022/03/28 11:17:30;;;;;;;26.08;18.60;;;;;;;17.20;56.09;102127.84;5273318;28;20039;-71
2022/03/28 11:20:12;;;;;;;25.45;17.73;;;;;;;17.20;54.91;102128.66;5269766;28;20028;-71
2022/03/28 11:22:47;;;;;;;29.33;19.45;;;;;;;17.16;55.87;102127.28;5273755;28;20035;-70
2022/03/28 11:25:30;;;;;;;25.10;18.50;;;;;;;17.42;54.37;102116.06;5272659;28;20020;-71
2022/03/28 11:28:05;;;;;;;24.98;17.92;;;;;;;17.59;52.30;102115.31;5273349;28;20024;-72
2022/03/28 11:30:56;;;;;;;25.25;18.33;;;;;;;17.65;52.53;102112.09;5271224;28;21028;-71
2022/03/28 11:33:31;;;;;;;25.25;18.63;;;;;;;17.95;53.48;102112.81;5273548;28;20043;-72
2022/03/28 11:36:04;;;;;;;25.73;17.63;;;;;;;17.71;52.83;102105.38;5273897;28;20029;-72
2022/03/28 11:38:42;;;;;;;25.33;17.35;;;;;;;17.90;53.53;102099.16;5273847;28;20086;-72